sensor_id;sensor_type;location;lat;lon;timestamp;P1;durP1;ratioP1;P2;durP2;ratioP2
67248;SDS011;63247;54.300;18.592;2023-10-13T00:02:01;14.18;;;2.65;;
67248;SDS011;63247;54.300;18.592;2023-10-13T00:04:29;15.73;;;2.88;;
67248;SDS011;63247;54.300;18.592;2023-10-13T00:06:58;23.50;;;2.95;;
67248;SDS011;63247;54.300;18.592;2023-10-13T00:09:24;14.20;;;2.80;;
67248;SDS011;63247;54.300;18.592;2023-10-13T00:11:51;14.02;;;2.42;;
67248;SDS011;63247;54.300;18.592;2023-10-13T00:14:18;14.02;;;3.05;;
67248;SDS011;63247;54.300;18.592;2023-10-13T00:16:46;17.65;;;2.85;;
67248;SDS011;63247;54.300;18.592;2023-10-13T00:19:30;18.17;;;3.30;;
67248;SDS011;63247;54.300;18.592;2023-10-13T00:22:14;17.77;;;3.20;;
67248;SDS011;63247;54.300;18.592;2023-10-13T00:24:41;17.25;;;3.30;;
67248;SDS011;63247;54.300;18.592;2023-10-13T00:27:11;18.08;;;3.15;;
67248;SDS011;63247;54.300;18.592;2023-10-13T00:29:59;17.60;;;2.85;;
67248;SDS011;63247;54.300;18.592;2023-10-13T00:32:42;14.70;;;3.10;;
67248;SDS011;63247;54.300;18.592;2023-10-13T00:35:10;18.07;;;3.20;;
67248;SDS011;63247;54.300;18.592;2023-10-13T00:37:58;16.67;;;3.15;;
67248;SDS011;63247;54.300;18.592;2023-10-13T00:40:32;14.90;;;2.67;;
67248;SDS011;63247;54.300;18.592;2023-10-13T00:43:01;22.73;;;2.83;;
67248;SDS011;63247;54.300;18.592;2023-10-13T00:45:45;21.92;;;3.03;;
67248;SDS011;63247;54.300;18.592;2023-10-13T00:48:32;19.73;;;3.10;;
67248;SDS011;63247;54.300;18.592;2023-10-13T00:51:04;16.33;;;2.83;;
67248;SDS011;63247;54.300;18.592;2023-10-13T00:53:38;15.57;;;3.83;;
67248;SDS011;63247;54.300;18.592;2023-10-13T00:56:09;19.58;;;3.58;;
67248;SDS011;63247;54.300;18.592;2023-10-13T00:58:49;20.15;;;3.50;;
67248;SDS011;63247;54.300;18.592;2023-10-13T01:01:18;18.02;;;3.40;;
67248;SDS011;63247;54.300;18.592;2023-10-13T01:03:48;21.60;;;3.20;;
67248;SDS011;63247;54.300;18.592;2023-10-13T01:06:16;14.03;;;3.10;;
67248;SDS011;63247;54.300;18.592;2023-10-13T01:08:46;21.25;;;3.58;;
67248;SDS011;63247;54.300;18.592;2023-10-13T01:11:19;16.30;;;2.70;;
67248;SDS011;63247;54.300;18.592;2023-10-13T01:13:44;15.47;;;3.23;;
67248;SDS011;63247;54.300;18.592;2023-10-13T01:16:12;14.35;;;2.83;;
67248;SDS011;63247;54.300;18.592;2023-10-13T01:18:37;16.67;;;3.03;;
67248;SDS011;63247;54.300;18.592;2023-10-13T01:21:13;14.13;;;2.90;;
67248;SDS011;63247;54.300;18.592;2023-10-13T01:23:42;23.10;;;3.60;;
67248;SDS011;63247;54.300;18.592;2023-10-13T01:26:09;16.55;;;2.60;;
67248;SDS011;63247;54.300;18.592;2023-10-13T01:28:37;15.85;;;2.90;;
67248;SDS011;63247;54.300;18.592;2023-10-13T01:31:12;15.50;;;2.60;;
67248;SDS011;63247;54.300;18.592;2023-10-13T01:34:03;15.23;;;2.83;;
67248;SDS011;63247;54.300;18.592;2023-10-13T01:36:29;16.47;;;2.80;;
67248;SDS011;63247;54.300;18.592;2023-10-13T01:39:00;15.02;;;2.85;;
67248;SDS011;63247;54.300;18.592;2023-10-13T01:41:26;18.42;;;3.47;;
67248;SDS011;63247;54.300;18.592;2023-10-13T01:43:52;18.53;;;3.10;;
67248;SDS011;63247;54.300;18.592;2023-10-13T01:46:17;13.63;;;3.27;;
67248;SDS011;63247;54.300;18.592;2023-10-13T01:48:47;15.80;;;2.88;;
67248;SDS011;63247;54.300;18.592;2023-10-13T01:51:12;19.65;;;3.20;;
67248;SDS011;63247;54.300;18.592;2023-10-13T01:53:38;20.20;;;3.20;;
67248;SDS011;63247;54.300;18.592;2023-10-13T01:56:05;17.80;;;3.60;;
67248;SDS011;63247;54.300;18.592;2023-10-13T01:58:35;17.95;;;3.47;;
67248;SDS011;63247;54.300;18.592;2023-10-13T02:01:01;20.77;;;3.65;;
67248;SDS011;63247;54.300;18.592;2023-10-13T02:03:27;22.33;;;3.83;;
67248;SDS011;63247;54.300;18.592;2023-10-13T02:05:55;16.80;;;3.65;;
67248;SDS011;63247;54.300;18.592;2023-10-13T02:08:23;24.50;;;3.60;;
67248;SDS011;63247;54.300;18.592;2023-10-13T02:10:58;19.73;;;3.67;;
67248;SDS011;63247;54.300;18.592;2023-10-13T02:13:26;20.73;;;3.60;;
67248;SDS011;63247;54.300;18.592;2023-10-13T02:15:55;18.65;;;3.63;;
67248;SDS011;63247;54.300;18.592;2023-10-13T02:18:22;18.60;;;3.23;;
67248;SDS011;63247;54.300;18.592;2023-10-13T02:20:54;20.58;;;3.80;;
67248;SDS011;63247;54.300;18.592;2023-10-13T02:23:22;18.92;;;3.53;;
67248;SDS011;63247;54.300;18.592;2023-10-13T02:25:49;21.27;;;3.50;;
67248;SDS011;63247;54.300;18.592;2023-10-13T02:28:25;15.80;;;3.25;;
67248;SDS011;63247;54.300;18.592;2023-10-13T02:30:54;27.57;;;3.93;;
67248;SDS011;63247;54.300;18.592;2023-10-13T02:33:19;21.73;;;4.05;;
67248;SDS011;63247;54.300;18.592;2023-10-13T02:35:54;26.73;;;4.07;;
67248;SDS011;63247;54.300;18.592;2023-10-13T02:38:24;17.45;;;3.80;;
67248;SDS011;63247;54.300;18.592;2023-10-13T02:41:02;15.13;;;3.55;;
67248;SDS011;63247;54.300;18.592;2023-10-13T02:43:32;20.15;;;3.80;;
67248;SDS011;63247;54.300;18.592;2023-10-13T02:46:01;21.67;;;3.97;;
67248;SDS011;63247;54.300;18.592;2023-10-13T02:48:27;23.03;;;3.70;;
67248;SDS011;63247;54.300;18.592;2023-10-13T02:51:06;18.63;;;3.33;;
67248;SDS011;63247;54.300;18.592;2023-10-13T02:53:49;21.50;;;3.80;;
67248;SDS011;63247;54.300;18.592;2023-10-13T02:56:15;23.30;;;3.85;;
67248;SDS011;63247;54.300;18.592;2023-10-13T02:58:49;20.48;;;4.53;;
67248;SDS011;63247;54.300;18.592;2023-10-13T03:01:35;27.47;;;4.63;;
67248;SDS011;63247;54.300;18.592;2023-10-13T03:04:01;22.00;;;4.13;;
67248;SDS011;63247;54.300;18.592;2023-10-13T03:06:38;22.27;;;3.83;;
67248;SDS011;63247;54.300;18.592;2023-10-13T03:09:07;23.60;;;4.22;;
67248;SDS011;63247;54.300;18.592;2023-10-13T03:11:43;19.23;;;3.75;;
67248;SDS011;63247;54.300;18.592;2023-10-13T03:14:19;21.02;;;3.92;;
67248;SDS011;63247;54.300;18.592;2023-10-13T03:16:58;20.65;;;3.88;;
67248;SDS011;63247;54.300;18.592;2023-10-13T03:19:30;22.27;;;3.77;;
67248;SDS011;63247;54.300;18.592;2023-10-13T03:22:00;21.30;;;4.03;;
67248;SDS011;63247;54.300;18.592;2023-10-13T03:24:39;18.02;;;4.05;;
67248;SDS011;63247;54.300;18.592;2023-10-13T03:27:17;23.33;;;4.30;;
67248;SDS011;63247;54.300;18.592;2023-10-13T03:29:48;17.70;;;4.50;;
67248;SDS011;63247;54.300;18.592;2023-10-13T03:32:19;18.90;;;4.23;;
67248;SDS011;63247;54.300;18.592;2023-10-13T03:34:46;23.50;;;4.38;;
67248;SDS011;63247;54.300;18.592;2023-10-13T03:37:18;19.33;;;4.38;;
67248;SDS011;63247;54.300;18.592;2023-10-13T03:40:03;15.88;;;4.10;;
67248;SDS011;63247;54.300;18.592;2023-10-13T03:42:51;22.50;;;4.63;;
67248;SDS011;63247;54.300;18.592;2023-10-13T03:45:30;22.43;;;4.07;;
67248;SDS011;63247;54.300;18.592;2023-10-13T03:48:11;20.10;;;4.78;;
67248;SDS011;63247;54.300;18.592;2023-10-13T03:50:50;22.42;;;4.35;;
67248;SDS011;63247;54.300;18.592;2023-10-13T03:53:35;16.65;;;4.70;;
67248;SDS011;63247;54.300;18.592;2023-10-13T03:56:04;24.15;;;4.80;;
67248;SDS011;63247;54.300;18.592;2023-10-13T03:58:38;20.17;;;4.60;;
67248;SDS011;63247;54.300;18.592;2023-10-13T04:01:07;18.85;;;4.35;;
67248;SDS011;63247;54.300;18.592;2023-10-13T04:03:35;19.45;;;5.13;;
67248;SDS011;63247;54.300;18.592;2023-10-13T04:06:01;24.13;;;5.50;;
67248;SDS011;63247;54.300;18.592;2023-10-13T04:08:31;17.73;;;5.88;;
67248;SDS011;63247;54.300;18.592;2023-10-13T04:11:13;25.27;;;6.00;;
67248;SDS011;63247;54.300;18.592;2023-10-13T04:13:57;18.38;;;5.30;;
67248;SDS011;63247;54.300;18.592;2023-10-13T04:16:41;20.13;;;4.65;;
67248;SDS011;63247;54.300;18.592;2023-10-13T04:19:17;21.00;;;4.78;;
67248;SDS011;63247;54.300;18.592;2023-10-13T04:21:49;17.23;;;4.47;;
67248;SDS011;63247;54.300;18.592;2023-10-13T04:24:23;20.97;;;5.10;;
67248;SDS011;63247;54.300;18.592;2023-10-13T04:27:04;24.42;;;4.80;;
67248;SDS011;63247;54.300;18.592;2023-10-13T04:29:39;19.52;;;4.40;;
67248;SDS011;63247;54.300;18.592;2023-10-13T04:32:17;18.92;;;4.80;;
67248;SDS011;63247;54.300;18.592;2023-10-13T04:35:04;16.02;;;4.53;;
67248;SDS011;63247;54.300;18.592;2023-10-13T04:37:43;21.27;;;5.00;;
67248;SDS011;63247;54.300;18.592;2023-10-13T04:40:19;26.95;;;5.60;;
67248;SDS011;63247;54.300;18.592;2023-10-13T04:42:49;21.48;;;5.35;;
67248;SDS011;63247;54.300;18.592;2023-10-13T04:45:18;19.65;;;5.20;;
67248;SDS011;63247;54.300;18.592;2023-10-13T04:47:57;17.48;;;5.25;;
67248;SDS011;63247;54.300;18.592;2023-10-13T04:50:43;21.57;;;5.60;;
67248;SDS011;63247;54.300;18.592;2023-10-13T04:53:17;23.45;;;6.13;;
67248;SDS011;63247;54.300;18.592;2023-10-13T04:56:12;20.23;;;5.70;;
67248;SDS011;63247;54.300;18.592;2023-10-13T04:58:56;24.48;;;5.30;;
67248;SDS011;63247;54.300;18.592;2023-10-13T05:01:43;19.58;;;5.97;;
67248;SDS011;63247;54.300;18.592;2023-10-13T05:04:27;22.50;;;6.47;;
67248;SDS011;63247;54.300;18.592;2023-10-13T05:07:04;22.42;;;6.05;;
67248;SDS011;63247;54.300;18.592;2023-10-13T05:09:48;21.25;;;6.15;;
67248;SDS011;63247;54.300;18.592;2023-10-13T05:12:34;19.92;;;6.40;;
67248;SDS011;63247;54.300;18.592;2023-10-13T05:15:19;21.23;;;6.05;;
67248;SDS011;63247;54.300;18.592;2023-10-13T05:18:03;19.97;;;6.13;;
67248;SDS011;63247;54.300;18.592;2023-10-13T05:20:47;22.33;;;5.70;;
67248;SDS011;63247;54.300;18.592;2023-10-13T05:23:31;20.25;;;5.75;;
67248;SDS011;63247;54.300;18.592;2023-10-13T05:26:15;17.15;;;5.80;;
67248;SDS011;63247;54.300;18.592;2023-10-13T05:28:59;23.73;;;8.27;;
67248;SDS011;63247;54.300;18.592;2023-10-13T05:31:57;20.03;;;6.10;;
67248;SDS011;63247;54.300;18.592;2023-10-13T05:34:41;21.25;;;6.05;;
67248;SDS011;63247;54.300;18.592;2023-10-13T05:37:25;24.05;;;5.85;;
67248;SDS011;63247;54.300;18.592;2023-10-13T05:40:09;22.38;;;6.28;;
67248;SDS011;63247;54.300;18.592;2023-10-13T05:42:53;16.83;;;5.70;;
67248;SDS011;63247;54.300;18.592;2023-10-13T05:45:37;18.43;;;5.13;;
67248;SDS011;63247;54.300;18.592;2023-10-13T05:48:25;16.55;;;5.20;;
67248;SDS011;63247;54.300;18.592;2023-10-13T05:51:07;126.55;;;10.52;;
67248;SDS011;63247;54.300;18.592;2023-10-13T05:53:51;51.60;;;5.93;;
67248;SDS011;63247;54.300;18.592;2023-10-13T05:56:35;21.27;;;4.68;;
67248;SDS011;63247;54.300;18.592;2023-10-13T05:59:18;24.37;;;4.73;;
67248;SDS011;63247;54.300;18.592;2023-10-13T06:02:02;10.40;;;3.45;;
67248;SDS011;63247;54.300;18.592;2023-10-13T06:04:46;17.27;;;4.18;;
67248;SDS011;63247;54.300;18.592;2023-10-13T06:07:30;13.77;;;3.97;;
67248;SDS011;63247;54.300;18.592;2023-10-13T06:10:14;15.60;;;3.90;;
67248;SDS011;63247;54.300;18.592;2023-10-13T06:12:58;13.83;;;4.30;;
67248;SDS011;63247;54.300;18.592;2023-10-13T06:15:42;15.90;;;4.32;;
67248;SDS011;63247;54.300;18.592;2023-10-13T06:18:26;21.10;;;4.97;;
67248;SDS011;63247;54.300;18.592;2023-10-13T06:21:09;16.88;;;4.38;;
67248;SDS011;63247;54.300;18.592;2023-10-13T06:23:53;13.50;;;4.18;;
67248;SDS011;63247;54.300;18.592;2023-10-13T06:26:37;11.03;;;3.70;;
67248;SDS011;63247;54.300;18.592;2023-10-13T06:29:21;10.10;;;3.38;;
67248;SDS011;63247;54.300;18.592;2023-10-13T06:31:47;13.37;;;3.67;;
67248;SDS011;63247;54.300;18.592;2023-10-13T06:34:12;10.25;;;3.55;;
67248;SDS011;63247;54.300;18.592;2023-10-13T06:36:40;12.15;;;3.35;;
67248;SDS011;63247;54.300;18.592;2023-10-13T06:39:07;13.00;;;3.63;;
67248;SDS011;63247;54.300;18.592;2023-10-13T06:41:55;11.65;;;3.33;;
67248;SDS011;63247;54.300;18.592;2023-10-13T06:44:21;10.33;;;3.20;;
67248;SDS011;63247;54.300;18.592;2023-10-13T06:46:47;9.77;;;3.38;;
67248;SDS011;63247;54.300;18.592;2023-10-13T06:49:15;9.95;;;3.13;;
67248;SDS011;63247;54.300;18.592;2023-10-13T06:51:43;11.90;;;3.10;;
67248;SDS011;63247;54.300;18.592;2023-10-13T06:54:11;12.63;;;3.13;;
67248;SDS011;63247;54.300;18.592;2023-10-13T06:56:45;9.35;;;3.00;;
67248;SDS011;63247;54.300;18.592;2023-10-13T06:59:11;11.07;;;3.25;;
67248;SDS011;63247;54.300;18.592;2023-10-13T07:01:39;13.70;;;3.30;;
67248;SDS011;63247;54.300;18.592;2023-10-13T07:04:09;12.50;;;3.65;;
67248;SDS011;63247;54.300;18.592;2023-10-13T07:06:41;14.40;;;3.77;;
67248;SDS011;63247;54.300;18.592;2023-10-13T07:09:13;16.02;;;3.00;;
67248;SDS011;63247;54.300;18.592;2023-10-13T07:12:04;10.15;;;3.55;;
67248;SDS011;63247;54.300;18.592;2023-10-13T07:14:51;12.55;;;3.58;;
67248;SDS011;63247;54.300;18.592;2023-10-13T07:17:17;18.63;;;6.38;;
67248;SDS011;63247;54.300;18.592;2023-10-13T07:19:53;15.50;;;5.73;;
67248;SDS011;63247;54.300;18.592;2023-10-13T07:22:21;13.55;;;4.35;;
67248;SDS011;63247;54.300;18.592;2023-10-13T07:24:49;93.97;;;39.13;;
67248;SDS011;63247;54.300;18.592;2023-10-13T07:27:18;20.92;;;6.43;;
67248;SDS011;63247;54.300;18.592;2023-10-13T07:29:54;13.20;;;3.25;;
67248;SDS011;63247;54.300;18.592;2023-10-13T07:32:42;24.17;;;10.43;;
67248;SDS011;63247;54.300;18.592;2023-10-13T07:35:19;30.05;;;13.65;;
67248;SDS011;63247;54.300;18.592;2023-10-13T07:37:48;24.88;;;10.73;;
67248;SDS011;63247;54.300;18.592;2023-10-13T07:40:19;13.55;;;3.30;;
67248;SDS011;63247;54.300;18.592;2023-10-13T07:42:54;14.23;;;4.38;;
67248;SDS011;63247;54.300;18.592;2023-10-13T07:45:26;13.87;;;5.00;;
67248;SDS011;63247;54.300;18.592;2023-10-13T07:48:05;12.55;;;5.30;;
67248;SDS011;63247;54.300;18.592;2023-10-13T07:50:44;11.57;;;3.33;;
67248;SDS011;63247;54.300;18.592;2023-10-13T07:53:11;9.00;;;2.83;;
67248;SDS011;63247;54.300;18.592;2023-10-13T07:55:48;10.63;;;3.50;;
67248;SDS011;63247;54.300;18.592;2023-10-13T07:58:27;9.73;;;3.20;;
67248;SDS011;63247;54.300;18.592;2023-10-13T08:00:53;8.93;;;3.35;;
67248;SDS011;63247;54.300;18.592;2023-10-13T08:03:39;10.90;;;3.27;;
67248;SDS011;63247;54.300;18.592;2023-10-13T08:06:11;10.07;;;2.97;;
67248;SDS011;63247;54.300;18.592;2023-10-13T08:08:40;11.68;;;2.80;;
67248;SDS011;63247;54.300;18.592;2023-10-13T08:11:09;9.52;;;2.50;;
67248;SDS011;63247;54.300;18.592;2023-10-13T08:13:48;10.98;;;3.20;;
67248;SDS011;63247;54.300;18.592;2023-10-13T08:16:19;13.37;;;3.40;;
67248;SDS011;63247;54.300;18.592;2023-10-13T08:19:16;10.82;;;3.38;;
67248;SDS011;63247;54.300;18.592;2023-10-13T08:21:43;11.05;;;3.67;;
67248;SDS011;63247;54.300;18.592;2023-10-13T08:24:39;12.93;;;3.15;;
67248;SDS011;63247;54.300;18.592;2023-10-13T08:27:05;7.67;;;2.40;;
67248;SDS011;63247;54.300;18.592;2023-10-13T08:29:41;12.82;;;3.72;;
67248;SDS011;63247;54.300;18.592;2023-10-13T08:32:19;13.60;;;5.05;;
67248;SDS011;63247;54.300;18.592;2023-10-13T08:34:53;19.45;;;7.20;;
67248;SDS011;63247;54.300;18.592;2023-10-13T08:37:19;16.10;;;4.97;;
67248;SDS011;63247;54.300;18.592;2023-10-13T08:39:48;16.55;;;5.75;;
67248;SDS011;63247;54.300;18.592;2023-10-13T08:42:30;21.85;;;7.25;;
67248;SDS011;63247;54.300;18.592;2023-10-13T08:45:20;13.38;;;4.85;;
67248;SDS011;63247;54.300;18.592;2023-10-13T08:47:53;14.52;;;5.35;;
67248;SDS011;63247;54.300;18.592;2023-10-13T08:50:33;18.90;;;7.07;;
67248;SDS011;63247;54.300;18.592;2023-10-13T08:53:15;15.82;;;5.72;;
67248;SDS011;63247;54.300;18.592;2023-10-13T08:56:00;12.85;;;4.70;;
67248;SDS011;63247;54.300;18.592;2023-10-13T08:58:49;15.90;;;5.13;;
67248;SDS011;63247;54.300;18.592;2023-10-13T09:01:18;11.63;;;4.45;;
67248;SDS011;63247;54.300;18.592;2023-10-13T09:04:12;13.93;;;4.70;;
67248;SDS011;63247;54.300;18.592;2023-10-13T09:06:49;14.27;;;4.13;;
67248;SDS011;63247;54.300;18.592;2023-10-13T09:09:25;13.27;;;4.00;;
67248;SDS011;63247;54.300;18.592;2023-10-13T09:12:22;15.52;;;4.00;;
67248;SDS011;63247;54.300;18.592;2023-10-13T09:14:53;14.02;;;3.90;;
67248;SDS011;63247;54.300;18.592;2023-10-13T09:17:26;17.77;;;4.03;;
67248;SDS011;63247;54.300;18.592;2023-10-13T09:20:00;14.45;;;3.53;;
67248;SDS011;63247;54.300;18.592;2023-10-13T09:22:47;10.65;;;3.15;;
67248;SDS011;63247;54.300;18.592;2023-10-13T09:25:36;15.75;;;3.85;;
67248;SDS011;63247;54.300;18.592;2023-10-13T09:28:03;14.15;;;3.15;;
67248;SDS011;63247;54.300;18.592;2023-10-13T09:30:46;11.77;;;2.80;;
67248;SDS011;63247;54.300;18.592;2023-10-13T09:33:12;15.32;;;3.47;;
67248;SDS011;63247;54.300;18.592;2023-10-13T09:35:44;9.73;;;3.42;;
67248;SDS011;63247;54.300;18.592;2023-10-13T09:38:19;11.68;;;3.47;;
67248;SDS011;63247;54.300;18.592;2023-10-13T09:40:45;15.65;;;4.57;;
67248;SDS011;63247;54.300;18.592;2023-10-13T09:43:18;15.17;;;4.43;;
67248;SDS011;63247;54.300;18.592;2023-10-13T09:45:48;13.45;;;3.88;;
67248;SDS011;63247;54.300;18.592;2023-10-13T09:48:41;14.63;;;3.60;;
67248;SDS011;63247;54.300;18.592;2023-10-13T09:51:18;14.70;;;4.28;;
67248;SDS011;63247;54.300;18.592;2023-10-13T09:54:09;13.20;;;4.18;;
67248;SDS011;63247;54.300;18.592;2023-10-13T09:56:54;15.03;;;5.13;;
67248;SDS011;63247;54.300;18.592;2023-10-13T09:59:38;14.77;;;4.45;;
67248;SDS011;63247;54.300;18.592;2023-10-13T10:02:19;13.68;;;4.82;;
67248;SDS011;63247;54.300;18.592;2023-10-13T10:04:54;11.88;;;4.22;;
67248;SDS011;63247;54.300;18.592;2023-10-13T10:07:36;11.90;;;3.55;;
67248;SDS011;63247;54.300;18.592;2023-10-13T10:10:01;10.40;;;3.57;;
67248;SDS011;63247;54.300;18.592;2023-10-13T10:17:56;12.25;;;3.30;;
67248;SDS011;63247;54.300;18.592;2023-10-13T10:20:27;10.88;;;2.85;;
67248;SDS011;63247;54.300;18.592;2023-10-13T10:23:10;10.97;;;3.03;;
67248;SDS011;63247;54.300;18.592;2023-10-13T10:25:47;11.32;;;2.70;;
67248;SDS011;63247;54.300;18.592;2023-10-13T10:28:13;10.35;;;2.53;;
67248;SDS011;63247;54.300;18.592;2023-10-13T10:30:40;8.90;;;2.28;;
67248;SDS011;63247;54.300;18.592;2023-10-13T10:33:07;10.48;;;2.30;;
67248;SDS011;63247;54.300;18.592;2023-10-13T10:35:38;11.23;;;2.17;;
67248;SDS011;63247;54.300;18.592;2023-10-13T10:38:15;9.88;;;2.47;;
67248;SDS011;63247;54.300;18.592;2023-10-13T10:40:58;8.40;;;1.98;;
67248;SDS011;63247;54.300;18.592;2023-10-13T10:46:26;11.27;;;2.75;;
67248;SDS011;63247;54.300;18.592;2023-10-13T10:48:53;7.50;;;2.50;;
67248;SDS011;63247;54.300;18.592;2023-10-13T10:51:26;8.70;;;2.20;;
67248;SDS011;63247;54.300;18.592;2023-10-13T10:53:56;11.82;;;2.40;;
67248;SDS011;63247;54.300;18.592;2023-10-13T10:56:23;13.40;;;2.80;;
67248;SDS011;63247;54.300;18.592;2023-10-13T10:58:54;10.43;;;2.50;;
67248;SDS011;63247;54.300;18.592;2023-10-13T11:01:21;11.10;;;2.40;;
67248;SDS011;63247;54.300;18.592;2023-10-13T11:03:58;9.68;;;2.78;;
67248;SDS011;63247;54.300;18.592;2023-10-13T11:06:27;11.60;;;2.85;;
67248;SDS011;63247;54.300;18.592;2023-10-13T11:09:04;11.38;;;2.40;;
67248;SDS011;63247;54.300;18.592;2023-10-13T11:11:43;13.88;;;3.03;;
67248;SDS011;63247;54.300;18.592;2023-10-13T11:14:09;9.20;;;2.60;;
67248;SDS011;63247;54.300;18.592;2023-10-13T11:16:52;14.27;;;2.90;;
67248;SDS011;63247;54.300;18.592;2023-10-13T11:19:20;10.90;;;2.33;;
67248;SDS011;63247;54.300;18.592;2023-10-13T11:21:50;7.40;;;2.40;;
67248;SDS011;63247;54.300;18.592;2023-10-13T11:24:17;9.90;;;2.70;;
67248;SDS011;63247;54.300;18.592;2023-10-13T11:26:43;11.10;;;3.17;;
67248;SDS011;63247;54.300;18.592;2023-10-13T11:29:18;11.52;;;3.42;;
67248;SDS011;63247;54.300;18.592;2023-10-13T11:31:48;13.50;;;3.67;;
67248;SDS011;63247;54.300;18.592;2023-10-13T11:34:20;11.73;;;3.65;;
67248;SDS011;63247;54.300;18.592;2023-10-13T11:36:45;14.25;;;3.67;;
67248;SDS011;63247;54.300;18.592;2023-10-13T11:39:11;15.00;;;3.60;;
67248;SDS011;63247;54.300;18.592;2023-10-13T11:41:43;10.52;;;4.07;;
67248;SDS011;63247;54.300;18.592;2023-10-13T11:44:18;15.65;;;4.35;;
67248;SDS011;63247;54.300;18.592;2023-10-13T11:46:44;10.57;;;3.97;;
67248;SDS011;63247;54.300;18.592;2023-10-13T11:49:12;10.55;;;3.53;;
67248;SDS011;63247;54.300;18.592;2023-10-13T11:51:44;12.18;;;3.92;;
67248;SDS011;63247;54.300;18.592;2023-10-13T11:54:11;13.43;;;3.73;;
67248;SDS011;63247;54.300;18.592;2023-10-13T11:56:48;13.18;;;3.97;;
67248;SDS011;63247;54.300;18.592;2023-10-13T11:59:14;13.27;;;4.47;;
67248;SDS011;63247;54.300;18.592;2023-10-13T12:04:31;13.20;;;4.50;;
67248;SDS011;63247;54.300;18.592;2023-10-13T12:07:06;16.97;;;4.73;;
67248;SDS011;63247;54.300;18.592;2023-10-13T12:09:51;13.73;;;4.93;;
67248;SDS011;63247;54.300;18.592;2023-10-13T12:12:17;17.15;;;5.15;;
67248;SDS011;63247;54.300;18.592;2023-10-13T12:14:43;15.70;;;5.60;;
67248;SDS011;63247;54.300;18.592;2023-10-13T12:17:28;17.95;;;6.20;;
67248;SDS011;63247;54.300;18.592;2023-10-13T12:20:00;18.07;;;6.70;;
67248;SDS011;63247;54.300;18.592;2023-10-13T12:22:26;17.63;;;6.13;;
67248;SDS011;63247;54.300;18.592;2023-10-13T12:25:01;18.02;;;6.70;;
67248;SDS011;63247;54.300;18.592;2023-10-13T12:27:30;15.65;;;6.07;;
67248;SDS011;63247;54.300;18.592;2023-10-13T12:30:11;16.70;;;6.50;;
67248;SDS011;63247;54.300;18.592;2023-10-13T12:32:39;20.87;;;6.97;;
67248;SDS011;63247;54.300;18.592;2023-10-13T12:35:18;18.52;;;6.63;;
67248;SDS011;63247;54.300;18.592;2023-10-13T12:38:00;17.88;;;7.45;;
67248;SDS011;63247;54.300;18.592;2023-10-13T12:40:41;21.05;;;7.15;;
67248;SDS011;63247;54.300;18.592;2023-10-13T12:43:25;19.10;;;7.10;;
67248;SDS011;63247;54.300;18.592;2023-10-13T12:46:09;22.30;;;7.23;;
67248;SDS011;63247;54.300;18.592;2023-10-13T12:48:53;20.48;;;7.30;;
67248;SDS011;63247;54.300;18.592;2023-10-13T12:51:51;19.92;;;8.38;;
67248;SDS011;63247;54.300;18.592;2023-10-13T12:54:16;20.73;;;7.87;;
67248;SDS011;63247;54.300;18.592;2023-10-13T12:57:00;20.20;;;8.63;;
67248;SDS011;63247;54.300;18.592;2023-10-13T12:59:25;22.33;;;7.77;;
67248;SDS011;63247;54.300;18.592;2023-10-13T13:01:53;20.20;;;9.55;;
67248;SDS011;63247;54.300;18.592;2023-10-13T13:04:19;23.33;;;9.95;;
67248;SDS011;63247;54.300;18.592;2023-10-13T13:06:45;23.65;;;10.35;;
67248;SDS011;63247;54.300;18.592;2023-10-13T13:09:15;23.05;;;9.75;;
67248;SDS011;63247;54.300;18.592;2023-10-13T13:11:41;26.45;;;9.80;;
67248;SDS011;63247;54.300;18.592;2023-10-13T13:14:06;27.80;;;10.23;;
67248;SDS011;63247;54.300;18.592;2023-10-13T13:16:35;23.75;;;10.52;;
67248;SDS011;63247;54.300;18.592;2023-10-13T13:19:03;24.13;;;10.93;;
67248;SDS011;63247;54.300;18.592;2023-10-13T13:21:35;26.53;;;11.23;;
67248;SDS011;63247;54.300;18.592;2023-10-13T13:24:02;25.25;;;10.73;;
67248;SDS011;63247;54.300;18.592;2023-10-13T13:26:29;26.75;;;11.77;;
67248;SDS011;63247;54.300;18.592;2023-10-13T13:28:56;24.15;;;11.02;;
67248;SDS011;63247;54.300;18.592;2023-10-13T13:31:22;26.63;;;11.70;;
67248;SDS011;63247;54.300;18.592;2023-10-13T13:33:51;27.55;;;12.43;;
67248;SDS011;63247;54.300;18.592;2023-10-13T13:36:22;25.83;;;11.82;;
67248;SDS011;63247;54.300;18.592;2023-10-13T13:38:48;24.10;;;12.30;;
67248;SDS011;63247;54.300;18.592;2023-10-13T13:41:19;32.65;;;12.48;;
67248;SDS011;63247;54.300;18.592;2023-10-13T13:43:45;34.50;;;13.67;;
67248;SDS011;63247;54.300;18.592;2023-10-13T13:46:17;34.35;;;15.02;;
67248;SDS011;63247;54.300;18.592;2023-10-13T13:48:43;28.95;;;14.52;;
67248;SDS011;63247;54.300;18.592;2023-10-13T13:51:12;35.03;;;15.15;;
67248;SDS011;63247;54.300;18.592;2023-10-13T13:53:44;41.08;;;16.20;;
67248;SDS011;63247;54.300;18.592;2023-10-13T13:56:11;38.13;;;16.37;;
67248;SDS011;63247;54.300;18.592;2023-10-13T13:58:41;32.80;;;15.15;;
67248;SDS011;63247;54.300;18.592;2023-10-13T14:01:09;37.88;;;16.77;;
67248;SDS011;63247;54.300;18.592;2023-10-13T14:03:40;43.53;;;16.83;;
67248;SDS011;63247;54.300;18.592;2023-10-13T14:06:15;41.40;;;19.08;;
67248;SDS011;63247;54.300;18.592;2023-10-13T14:08:43;42.27;;;18.07;;
67248;SDS011;63247;54.300;18.592;2023-10-13T14:11:10;49.08;;;19.77;;
67248;SDS011;63247;54.300;18.592;2023-10-13T14:13:39;46.58;;;19.17;;
67248;SDS011;63247;54.300;18.592;2023-10-13T14:16:21;47.97;;;20.83;;
67248;SDS011;63247;54.300;18.592;2023-10-13T14:18:48;49.58;;;20.95;;
67248;SDS011;63247;54.300;18.592;2023-10-13T14:21:15;52.33;;;22.50;;
67248;SDS011;63247;54.300;18.592;2023-10-13T14:23:44;54.38;;;23.30;;
67248;SDS011;63247;54.300;18.592;2023-10-13T14:26:14;47.58;;;22.02;;
67248;SDS011;63247;54.300;18.592;2023-10-13T14:28:44;48.17;;;22.05;;
67248;SDS011;63247;54.300;18.592;2023-10-13T14:31:29;47.92;;;22.75;;
67248;SDS011;63247;54.300;18.592;2023-10-13T14:33:56;56.17;;;22.93;;
67248;SDS011;63247;54.300;18.592;2023-10-13T14:36:22;53.95;;;23.83;;
67248;SDS011;63247;54.300;18.592;2023-10-13T14:38:48;54.05;;;23.73;;
67248;SDS011;63247;54.300;18.592;2023-10-13T14:41:18;49.03;;;20.80;;
67248;SDS011;63247;54.300;18.592;2023-10-13T14:43:44;55.10;;;24.90;;
67248;SDS011;63247;54.300;18.592;2023-10-13T14:46:16;56.50;;;25.73;;
67248;SDS011;63247;54.300;18.592;2023-10-13T14:48:42;53.17;;;24.80;;
67248;SDS011;63247;54.300;18.592;2023-10-13T14:51:11;61.42;;;26.25;;
67248;SDS011;63247;54.300;18.592;2023-10-13T14:53:45;59.70;;;28.70;;
67248;SDS011;63247;54.300;18.592;2023-10-13T14:56:14;57.65;;;26.88;;
67248;SDS011;63247;54.300;18.592;2023-10-13T14:58:41;59.37;;;28.70;;
67248;SDS011;63247;54.300;18.592;2023-10-13T15:01:16;60.20;;;29.00;;
67248;SDS011;63247;54.300;18.592;2023-10-13T15:06:14;59.47;;;26.83;;
67248;SDS011;63247;54.300;18.592;2023-10-13T15:08:47;65.70;;;29.03;;
67248;SDS011;63247;54.300;18.592;2023-10-13T15:11:13;65.63;;;30.42;;
67248;SDS011;63247;54.300;18.592;2023-10-13T15:13:42;65.40;;;29.63;;
67248;SDS011;63247;54.300;18.592;2023-10-13T15:18:40;65.53;;;32.00;;